Time;durP1;ratioP1;P1;durP2;ratioP2;P2;SDS_P1;SDS_P2;PMS_P1;PMS_P2;Temp;Humidity;BMP_temperature;BMP_pressure;BME280_temperature;BME280_humidity;BME280_pressure;Samples;Min_cycle;Max_cycle;Signal;HPM_P1;HPM_P2
2021/06/02 00:00:24;;;;;;;2.00;1.90;;;35.20;40.50;;;;;;5189013;27;20442;-41
2021/06/02 00:02:55;;;;;;;1.83;1.73;;;35.20;40.80;;;;;;5187482;27;20478;-41
2021/06/02 00:05:26;;;;;;;2.10;2.00;;;35.10;42.10;;;;;;5188222;27;20499;-40
2021/06/02 00:07:59;;;;;;;2.20;2.10;;;35.10;41.20;;;;;;5187729;27;20454;-41
2021/06/02 00:10:30;;;;;;;2.43;2.03;;;34.90;42.80;;;;;;5187365;27;20536;-41
2021/06/02 00:13:01;;;;;;;2.77;2.20;;;34.80;42.60;;;;;;5186776;27;20473;-41
2021/06/02 00:15:31;;;;;;;1.90;1.80;;;34.70;42.00;;;;;;5185443;27;20449;-40
2021/06/02 00:18:02;;;;;;;1.83;1.73;;;34.70;41.90;;;;;;5173508;27;20480;-41
2021/06/02 00:20:33;;;;;;;2.47;2.20;;;34.60;41.60;;;;;;5187705;27;20461;-41
2021/06/02 00:23:07;;;;;;;2.00;1.90;;;34.60;41.40;;;;;;5180893;27;20446;-41
2021/06/02 00:25:37;;;;;;;2.07;1.97;;;34.60;40.50;;;;;;5186482;27;20477;-42
2021/06/02 00:28:09;;;;;;;3.50;2.30;;;34.60;39.80;;;;;;5187999;27;20427;-42
2021/06/02 00:30:40;;;;;;;4.13;2.17;;;34.40;40.80;;;;;;5169265;27;20461;-41
2021/06/02 00:33:11;;;;;;;2.47;2.27;;;34.30;42.00;;;;;;5187123;27;20481;-41
2021/06/02 00:35:44;;;;;;;2.67;2.47;;;34.20;41.80;;;;;;5183708;27;20449;-41
2021/06/02 00:38:17;;;;;;;3.77;2.80;;;34.10;43.00;;;;;;5179971;27;20492;-41
2021/06/02 00:40:50;;;;;;;2.90;2.70;;;34.10;44.90;;;;;;5175880;27;20451;-42
2021/06/02 00:43:20;;;;;;;4.03;3.00;;;34.10;46.40;;;;;;5183521;27;20468;-41
2021/06/02 00:45:51;;;;;;;3.80;3.17;;;34.00;45.90;;;;;;5186899;27;20449;-42
2021/06/02 00:48:21;;;;;;;2.87;2.67;;;33.90;46.00;;;;;;5173823;27;20474;-43
2021/06/02 00:50:52;;;;;;;3.10;2.80;;;33.90;46.00;;;;;;5182192;27;20513;-41
2021/06/02 00:53:24;;;;;;;2.57;2.47;;;33.90;45.70;;;;;;5186249;27;20970;-42
2021/06/02 00:56:03;;;;;;;3.30;2.70;;;33.80;44.50;;;;;;5172786;27;20451;-41
2021/06/02 00:58:38;;;;;;;3.97;2.70;;;33.70;44.10;;;;;;5187578;27;20493;-41
2021/06/02 01:01:09;;;;;;;3.57;3.27;;;33.60;45.80;;;;;;5186382;27;20463;-40
2021/06/02 01:03:41;;;;;;;2.70;2.50;;;33.50;46.30;;;;;;5186907;27;20451;-41
2021/06/02 01:06:13;;;;;;;2.67;2.47;;;33.40;45.80;;;;;;5181328;27;20484;-41
2021/06/02 01:08:46;;;;;;;3.17;2.80;;;33.40;45.80;;;;;;5182658;27;20444;-41
2021/06/02 01:11:17;;;;;;;2.43;2.33;;;33.30;45.90;;;;;;5187241;27;20831;-40
2021/06/02 01:13:47;;;;;;;3.07;2.87;;;33.30;45.40;;;;;;5186934;27;20477;-41
2021/06/02 01:16:19;;;;;;;2.50;2.30;;;33.10;45.00;;;;;;5185946;27;20449;-41
2021/06/02 01:18:50;;;;;;;2.83;2.60;;;33.10;44.30;;;;;;5175871;27;20974;-41
2021/06/02 01:21:23;;;;;;;5.00;4.40;;;33.10;44.20;;;;;;5186990;27;20484;-41
2021/06/02 01:23:58;;;;;;;5.40;2.77;;;33.10;44.70;;;;;;5178881;27;20456;-42
2021/06/02 01:26:31;;;;;;;3.37;3.17;;;33.00;45.40;;;;;;5179372;27;20490;-42
2021/06/02 01:29:01;;;;;;;3.53;2.80;;;33.00;44.50;;;;;;5190249;27;20503;-42
2021/06/02 01:31:53;;;;;;;3.30;3.00;;;33.00;44.90;;;;;;5197425;27;20452;-41
2021/06/02 01:34:53;;;;;;;2.80;2.60;;;33.00;46.20;;;;;;5186022;27;20548;-41
2021/06/02 01:37:39;;;;;;;3.30;2.93;;;32.90;44.20;;;;;;5186901;27;20484;-41
2021/06/02 01:40:43;;;;;;;3.47;3.10;;;33.00;44.70;;;;;;5185173;27;20484;-44
2021/06/02 01:43:30;;;;;;;2.80;2.50;;;33.00;45.00;;;;;;5183292;27;20461;-42
2021/06/02 01:46:30;;;;;;;2.80;2.60;;;33.00;45.90;;;;;;5185749;27;20445;-41
2021/06/02 01:49:17;;;;;;;2.57;2.37;;;32.90;45.30;;;;;;5185663;27;20456;-40
2021/06/02 01:52:29;;;;;;;2.17;2.07;;;32.90;44.70;;;;;;5179342;27;20474;-42
2021/06/02 01:55:34;;;;;;;2.93;2.60;;;32.90;45.90;;;;;;5186784;27;20468;-41
2021/06/02 01:58:48;;;;;;;3.33;2.47;;;32.90;47.10;;;;;;5185723;27;20485;-41
2021/06/02 02:01:44;;;;;;;2.40;2.20;;;32.70;46.40;;;;;;5181197;27;20457;-41
2021/06/02 02:04:55;;;;;;;3.90;2.10;;;32.70;45.80;;;;;;5179483;27;20555;-41
2021/06/02 02:07:37;;;;;;;1.93;1.80;;;32.60;45.80;;;;;;5141406;27;20475;-41
2021/06/02 02:10:28;;;;;;;2.67;2.23;;;32.50;45.80;;;;;;5184017;27;20480;-41
2021/06/02 02:13:11;;;;;;;2.87;2.43;;;32.40;45.80;;;;;;5184233;27;20469;-41
2021/06/02 02:16:01;;;;;;;2.23;2.13;;;32.20;46.80;;;;;;5181494;27;20453;-41
2021/06/02 02:18:51;;;;;;;2.60;2.40;;;32.20;47.80;;;;;;5184721;27;20541;-41
2021/06/02 02:21:42;;;;;;;2.93;2.70;;;32.10;48.40;;;;;;5174281;27;20457;-41
2021/06/02 02:24:29;;;;;;;2.70;2.50;;;32.00;49.20;;;;;;5178062;27;20476;-42
2021/06/02 02:27:15;;;;;;;3.30;3.00;;;31.90;49.10;;;;;;5185420;27;20524;-41
2021/06/02 02:29:55;;;;;;;2.50;2.40;;;31.80;49.50;;;;;;5179463;27;20438;-41
2021/06/02 02:33:00;;;;;;;3.00;2.80;;;31.80;50.30;;;;;;5180563;27;20480;-42
2021/06/02 02:35:42;;;;;;;3.00;2.80;;;31.70;50.60;;;;;;5185601;27;20450;-41
2021/06/02 02:38:30;;;;;;;2.33;2.23;;;31.60;51.20;;;;;;5183688;27;20890;-41
2021/06/02 02:41:14;;;;;;;3.00;2.80;;;31.50;51.20;;;;;;5183904;27;20475;-41
2021/06/02 02:44:05;;;;;;;2.90;2.33;;;31.30;52.30;;;;;;5183378;27;20855;-42
2021/06/02 02:46:41;;;;;;;3.20;2.87;;;31.10;53.10;;;;;;5181604;27;20456;-42
2021/06/02 02:49:26;;;;;;;2.77;2.60;;;31.00;53.30;;;;;;5184393;27;20528;-42
2021/06/02 02:52:07;;;;;;;3.63;2.67;;;30.90;53.70;;;;;;5185032;27;20506;-43
2021/06/02 02:54:48;;;;;;;3.17;3.00;;;30.70;54.80;;;;;;5174808;27;20481;-43
2021/06/02 02:57:33;;;;;;;3.00;2.80;;;30.70;54.60;;;;;;5174900;27;20560;-43
2021/06/02 03:00:09;;;;;;;3.10;2.90;;;30.60;55.50;;;;;;5182457;27;20472;-43
2021/06/02 03:02:47;;;;;;;3.77;3.40;;;30.50;56.20;;;;;;5171163;27;20450;-41
2021/06/02 03:05:26;;;;;;;2.57;2.47;;;30.50;55.90;;;;;;5183311;27;20445;-41
2021/06/02 03:08:08;;;;;;;3.43;3.17;;;30.30;56.50;;;;;;5187095;27;21265;-41
2021/06/02 03:10:44;;;;;;;3.47;3.17;;;30.20;57.20;;;;;;5181147;27;20476;-42
2021/06/02 03:13:23;;;;;;;3.93;3.40;;;30.00;56.70;;;;;;5185466;27;20473;-41
2021/06/02 03:15:59;;;;;;;2.80;2.70;;;30.00;57.90;;;;;;5189867;27;20454;-42
2021/06/02 03:18:38;;;;;;;3.40;3.20;;;29.90;58.10;;;;;;5189209;27;20472;-41
2021/06/02 03:21:31;;;;;;;3.77;3.47;;;29.80;58.30;;;;;;5188705;27;20458;-41
2021/06/02 03:24:18;;;;;;;3.20;3.00;;;29.60;58.60;;;;;;5179063;27;20445;-43
2021/06/02 03:26:55;;;;;;;3.63;3.33;;;29.60;58.60;;;;;;5175464;27;20461;-43
2021/06/02 03:29:42;;;;;;;3.40;3.20;;;29.40;58.80;;;;;;5185822;27;20439;-41
2021/06/02 03:32:22;;;;;;;3.43;3.13;;;29.30;59.10;;;;;;5181217;27;20821;-41
2021/06/02 03:35:05;;;;;;;3.40;3.10;;;29.20;59.20;;;;;;5179587;27;20447;-42
2021/06/02 03:37:54;;;;;;;3.33;3.13;;;29.10;58.90;;;;;;5187325;27;20504;-42
2021/06/02 03:40:38;;;;;;;3.03;2.83;;;29.00;58.70;;;;;;5183110;27;20518;-42
2021/06/02 03:43:16;;;;;;;3.70;2.90;;;28.90;58.70;;;;;;5180731;27;20427;-42
2021/06/02 03:46:12;;;;;;;3.10;2.90;;;28.80;59.40;;;;;;5182956;27;20465;-42
2021/06/02 03:48:59;;;;;;;3.30;2.80;;;28.70;59.00;;;;;;5184646;27;20501;-42
2021/06/02 03:51:39;;;;;;;3.30;3.10;;;28.60;59.60;;;;;;5182892;27;20450;-43
2021/06/02 03:54:15;;;;;;;3.00;2.80;;;28.50;59.70;;;;;;5187808;27;20564;-42
2021/06/02 03:57:06;;;;;;;3.30;3.10;;;28.40;60.30;;;;;;5189092;27;20452;-42
2021/06/02 03:59:45;;;;;;;3.43;3.13;;;28.30;60.70;;;;;;5188003;27;20482;-42
2021/06/02 04:02:26;;;;;;;3.33;3.13;;;28.20;60.70;;;;;;5188563;27;20514;-42
2021/06/02 04:05:17;;;;;;;3.60;3.40;;;28.10;61.60;;;;;;5178967;27;20497;-41
2021/06/02 04:08:01;;;;;;;3.23;3.13;;;28.00;61.60;;;;;;5187788;27;20448;-42
2021/06/02 04:10:44;;;;;;;3.33;3.13;;;27.90;62.20;;;;;;5179193;27;20439;-42
2021/06/02 04:13:29;;;;;;;3.40;3.10;;;27.80;63.10;;;;;;5188112;27;20462;-42
2021/06/02 04:16:10;;;;;;;4.97;3.37;;;27.70;64.20;;;;;;5185219;27;20558;-42
2021/06/02 04:18:44;;;;;;;3.40;3.10;;;27.60;66.00;;;;;;5186188;27;20453;-42
2021/06/02 04:21:16;;;;;;;4.33;4.07;;;27.50;66.00;;;;;;5185935;27;20485;-42
2021/06/02 04:23:48;;;;;;;3.93;3.63;;;27.40;67.10;;;;;;5186980;27;20492;-42
2021/06/02 04:26:21;;;;;;;3.90;3.60;;;27.30;66.80;;;;;;5187868;27;21007;-42
2021/06/02 04:28:56;;;;;;;4.30;3.90;;;27.30;67.90;;;;;;5187237;27;20434;-42
2021/06/02 04:31:29;;;;;;;3.67;3.37;;;27.30;68.10;;;;;;5189079;27;20518;-42
2021/06/02 04:34:01;;;;;;;4.90;3.77;;;27.20;68.30;;;;;;5187943;27;20479;-42
2021/06/02 04:36:32;;;;;;;4.13;3.83;;;27.20;68.20;;;;;;5187117;27;20578;-41
2021/06/02 04:39:04;;;;;;;3.90;3.50;;;27.20;68.10;;;;;;5186648;27;20479;-41
2021/06/02 04:41:38;;;;;;;3.80;3.13;;;27.10;68.00;;;;;;5187704;27;20448;-41
2021/06/02 04:44:13;;;;;;;3.57;3.37;;;27.10;68.30;;;;;;5187718;27;20436;-41
2021/06/02 04:46:47;;;;;;;3.63;3.33;;;27.00;68.40;;;;;;5175216;27;20466;-41
2021/06/02 04:49:18;;;;;;;4.23;3.80;;;27.00;69.20;;;;;;5185497;27;20474;-41
2021/06/02 04:52:38;;;;;;;3.40;3.30;;;26.90;69.00;;;;;;5187484;27;20448;-42
2021/06/02 04:55:48;;;;;;;3.33;3.13;;;26.80;68.90;;;;;;5174504;27;20487;-40
2021/06/02 04:58:48;;;;;;;3.60;3.40;;;26.80;70.10;;;;;;5186988;27;20517;-42
2021/06/02 05:01:42;;;;;;;3.70;3.50;;;26.70;71.10;;;;;;5187467;27;20440;-41
2021/06/02 05:04:44;;;;;;;3.77;3.37;;;26.70;71.50;;;;;;5185051;27;20480;-41
2021/06/02 05:07:53;;;;;;;4.27;4.00;;;26.60;72.70;;;;;;5186215;27;20455;-41
2021/06/02 05:11:03;;;;;;;3.90;3.60;;;26.50;73.40;;;;;;5177878;27;20450;-42
2021/06/02 05:14:10;;;;;;;3.70;3.40;;;26.40;73.80;;;;;;5176918;27;20496;-42
2021/06/02 05:17:14;;;;;;;4.40;4.00;;;26.30;73.40;;;;;;5175844;27;20454;-41
2021/06/02 05:20:22;;;;;;;3.73;3.53;;;26.30;73.80;;;;;;5180226;27;20578;-42
2021/06/02 05:23:34;;;;;;;3.93;3.63;;;26.30;74.00;;;;;;5178430;27;20959;-43
2021/06/02 05:26:40;;;;;;;3.30;3.10;;;26.20;74.10;;;;;;5177959;27;20444;-43
2021/06/02 05:29:58;;;;;;;3.63;3.33;;;26.20;76.00;;;;;;5180527;27;20458;-41
2021/06/02 05:33:12;;;;;;;3.53;3.30;;;26.10;78.00;;;;;;5180800;27;20893;-42
2021/06/02 05:36:16;;;;;;;3.80;3.50;;;25.90;81.00;;;;;;5155928;27;20455;-42
2021/06/02 05:39:06;;;;;;;4.00;3.60;;;25.80;78.90;;;;;;5174183;27;20442;-41
2021/06/02 05:41:57;;;;;;;4.30;3.90;;;25.70;81.30;;;;;;5186630;27;20459;-42
2021/06/02 05:45:04;;;;;;;6.40;3.70;;;25.60;82.40;;;;;;5186381;27;20427;-42
2021/06/02 05:48:13;;;;;;;3.93;3.63;;;25.60;83.50;;;;;;5186449;27;20495;-42
2021/06/02 05:51:26;;;;;;;3.90;3.60;;;25.40;83.70;;;;;;5148566;27;20503;-42
2021/06/02 05:54:38;;;;;;;3.60;3.30;;;25.40;84.70;;;;;;5181644;27;20435;-42
2021/06/02 05:57:58;;;;;;;3.90;3.70;;;25.30;86.50;;;;;;5101322;28;20527;-41
2021/06/02 06:01:22;;;;;;;4.20;3.90;;;25.20;88.40;;;;;;5040996;28;20485;-41
2021/06/02 06:04:39;;;;;;;4.57;4.20;;;25.00;90.10;;;;;;5036257;28;20477;-41
2021/06/02 06:07:25;;;;;;;4.70;4.40;;;25.00;90.90;;;;;;5040040;28;20446;-41
2021/06/02 06:10:29;;;;;;;4.30;4.10;;;25.00;92.90;;;;;;5039582;28;20517;-42
2021/06/02 06:13:22;;;;;;;4.30;4.00;;;24.90;93.00;;;;;;5040211;28;20967;-42
2021/06/02 06:16:25;;;;;;;4.30;4.00;;;24.80;93.80;;;;;;5039900;28;20484;-42
2021/06/02 06:19:36;;;;;;;4.07;3.87;;;24.70;94.10;;;;;;5039721;28;20452;-41
2021/06/02 06:22:36;;;;;;;4.33;4.13;;;24.60;95.50;;;;;;5035028;28;20938;-43
2021/06/02 06:25:12;;;;;;;4.20;3.90;;;24.60;96.30;;;;;;5026107;28;20452;-42
2021/06/02 06:27:47;;;;;;;4.50;4.20;;;24.50;97.10;;;;;;5039705;28;20452;-42
2021/06/02 06:30:22;;;;;;;5.67;3.83;;;24.40;97.30;;;;;;5040141;28;20448;-42
2021/06/02 06:32:56;;;;;;;4.60;4.30;;;24.30;97.80;;;;;;5079372;28;20441;-42
2021/06/02 06:35:28;;;;;;;4.70;4.40;;;24.30;99.00;;;;;;5122371;27;20446;-41
2021/06/02 06:38:03;;;;;;;4.27;4.07;;;24.20;99.90;;;;;;5177529;27;20502;-42
2021/06/02 06:40:35;;;;;;;4.30;4.00;;;24.20;99.60;;;;;;5185367;27;20555;-42
2021/06/02 06:43:08;;;;;;;4.07;3.67;;;24.10;99.10;;;;;;5185263;27;20439;-42
2021/06/02 06:45:40;;;;;;;4.53;4.23;;;24.00;99.90;;;;;;5185391;27;20550;-42
2021/06/02 06:48:14;;;;;;;4.67;4.37;;;23.90;99.90;;;;;;5185326;27;20867;-42
2021/06/02 06:50:47;;;;;;;4.20;4.00;;;23.90;99.90;;;;;;5185195;27;20454;-42
2021/06/02 06:53:21;;;;;;;4.33;4.03;;;23.80;99.90;;;;;;5184394;27;20450;-43
2021/06/02 06:55:53;;;;;;;4.30;4.00;;;23.70;99.90;;;;;;5185264;27;20447;-43
2021/06/02 06:58:24;;;;;;;4.70;4.40;;;23.70;99.90;;;;;;5184956;27;20471;-42
2021/06/02 07:00:55;;;;;;;4.97;4.57;;;23.60;99.90;;;;;;5184023;27;20521;-40
2021/06/02 07:03:26;;;;;;;4.80;4.50;;;23.60;99.90;;;;;;5185649;27;20926;-42
2021/06/02 07:06:01;;;;;;;4.97;4.57;;;23.50;99.90;;;;;;5184615;27;20542;-42
2021/06/02 07:08:34;;;;;;;4.47;4.17;;;23.40;99.90;;;;;;5184212;27;20477;-41
2021/06/02 07:11:05;;;;;;;5.10;4.70;;;23.40;99.90;;;;;;5184478;27;20454;-42
2021/06/02 07:13:40;;;;;;;5.00;4.30;;;23.40;99.90;;;;;;5184781;27;20482;-41
2021/06/02 07:16:13;;;;;;;4.30;4.00;;;23.30;99.90;;;;;;5185494;27;20454;-42
2021/06/02 07:18:45;;;;;;;4.50;4.30;;;23.30;99.90;;;;;;5185538;27;20861;-42
2021/06/02 07:21:20;;;;;;;4.40;4.07;;;23.20;99.90;;;;;;5183290;27;20482;-42
2021/06/02 07:23:52;;;;;;;4.60;4.30;;;23.10;99.90;;;;;;5171543;27;20453;-42
2021/06/02 07:26:23;;;;;;;4.13;3.93;;;23.10;99.90;;;;;;5184973;27;20451;-42
2021/06/02 07:29:14;;;;;;;4.47;4.17;;;23.00;99.90;;;;;;5184078;27;20454;-42
2021/06/02 07:31:44;;;;;;;5.47;5.07;;;23.00;99.90;;;;;;5184912;27;20922;-42
2021/06/02 07:34:15;;;;;;;4.50;4.20;;;23.00;99.90;;;;;;5185245;27;20454;-42
2021/06/02 07:36:46;;;;;;;5.10;4.70;;;23.00;99.90;;;;;;5184819;27;20490;-41
2021/06/02 07:39:18;;;;;;;4.67;4.47;;;22.90;99.90;;;;;;5183752;27;20486;-42
2021/06/02 07:41:49;;;;;;;4.27;3.97;;;22.90;99.90;;;;;;5184804;27;20517;-41
2021/06/02 07:44:19;;;;;;;5.10;4.60;;;22.80;99.90;;;;;;5186196;27;20486;-42
2021/06/02 07:46:50;;;;;;;4.20;3.90;;;22.70;99.90;;;;;;5172325;27;20469;-42
2021/06/02 07:49:20;;;;;;;5.47;5.07;;;22.70;99.90;;;;;;5188594;27;20471;-41
2021/06/02 07:51:52;;;;;;;4.43;4.23;;;22.60;99.90;;;;;;5187590;27;20477;-42
2021/06/02 07:54:24;;;;;;;4.80;4.50;;;22.60;99.90;;;;;;5187248;27;20447;-41
2021/06/02 07:56:55;;;;;;;4.33;4.07;;;22.60;99.90;;;;;;5172715;27;20442;-42
2021/06/02 07:59:25;;;;;;;4.77;4.40;;;22.60;99.90;;;;;;5188010;27;20447;-41
2021/06/02 08:01:56;;;;;;;4.57;4.17;;;22.40;99.90;;;;;;5188039;27;20466;-42
2021/06/02 08:04:26;;;;;;;5.00;4.70;;;22.50;99.90;;;;;;5188689;27;20463;-42
2021/06/02 08:06:57;;;;;;;4.83;4.53;;;22.40;99.90;;;;;;5188199;27;20946;-42
2021/06/02 08:09:29;;;;;;;4.47;4.27;;;22.30;99.90;;;;;;5187281;27;20454;-42
2021/06/02 08:12:00;;;;;;;5.10;4.70;;;22.30;99.90;;;;;;5188174;27;20454;-42
2021/06/02 08:14:30;;;;;;;5.10;4.70;;;22.30;99.90;;;;;;5188134;27;20531;-41
2021/06/02 08:17:01;;;;;;;5.27;4.97;;;22.30;99.90;;;;;;5171849;27;20564;-42
2021/06/02 08:19:31;;;;;;;5.40;5.10;;;22.20;99.90;;;;;;5188418;27;20414;-42
2021/06/02 08:22:02;;;;;;;5.57;5.17;;;22.20;99.90;;;;;;5176093;27;20609;-41
2021/06/02 08:24:37;;;;;;;5.57;5.20;;;22.10;99.90;;;;;;5185723;27;20433;-41
2021/06/02 08:27:12;;;;;;;5.17;4.77;;;22.00;99.90;;;;;;5184299;27;20481;-41
2021/06/02 08:29:42;;;;;;;5.00;4.70;;;21.90;99.90;;;;;;5187877;27;20450;-42
2021/06/02 08:32:13;;;;;;;5.00;4.70;;;22.00;99.90;;;;;;5187773;27;20474;-41
2021/06/02 08:34:43;;;;;;;5.67;5.10;;;21.90;99.90;;;;;;5187996;27;20474;-41
2021/06/02 08:37:15;;;;;;;5.33;5.03;;;21.90;99.90;;;;;;5187855;27;20576;-41
2021/06/02 08:39:48;;;;;;;5.40;5.00;;;21.90;99.90;;;;;;5186996;27;20828;-41
2021/06/02 08:42:19;;;;;;;5.53;5.13;;;21.80;99.90;;;;;;5188115;27;20443;-42
2021/06/02 08:44:50;;;;;;;5.27;4.87;;;21.80;99.90;;;;;;5186990;27;20541;-41
2021/06/02 08:47:21;;;;;;;4.80;4.50;;;21.70;99.90;;;;;;5187756;27;20798;-42
2021/06/02 08:49:51;;;;;;;5.20;4.90;;;21.60;99.90;;;;;;5176160;27;20511;-42
2021/06/02 08:52:22;;;;;;;5.67;5.17;;;21.60;99.90;;;;;;5187946;27;20443;-42
2021/06/02 08:54:56;;;;;;;5.67;5.17;;;21.60;99.90;;;;;;5185825;27;20962;-42
2021/06/02 08:57:26;;;;;;;5.00;4.70;;;21.50;99.90;;;;;;5187696;27;20439;-42
2021/06/02 08:59:57;;;;;;;5.13;4.73;;;21.50;99.90;;;;;;5187037;27;20468;-42
2021/06/02 09:02:27;;;;;;;5.03;4.73;;;21.50;99.90;;;;;;5187654;27;20405;-42
2021/06/02 09:04:58;;;;;;;5.40;5.10;;;21.50;99.90;;;;;;5186746;27;20502;-42
2021/06/02 09:07:29;;;;;;;5.00;4.70;;;21.40;99.90;;;;;;5186008;27;20414;-43
2021/06/02 09:10:04;;;;;;;5.67;5.30;;;21.40;99.90;;;;;;5186307;27;20421;-42
2021/06/02 09:12:36;;;;;;;5.03;4.73;;;21.40;99.90;;;;;;5186856;27;20456;-41
2021/06/02 09:15:08;;;;;;;6.00;5.60;;;21.30;99.90;;;;;;5186887;27;20459;-41
2021/06/02 09:17:50;;;;;;;5.63;5.23;;;21.30;99.90;;;;;;5187644;27;20512;-41
2021/06/02 09:20:40;;;;;;;5.67;5.27;;;21.30;99.90;;;;;;5187369;27;20446;-42
2021/06/02 09:23:35;;;;;;;5.13;4.83;;;21.30;99.90;;;;;;5165239;27;20444;-42
2021/06/02 09:26:31;;;;;;;5.80;5.40;;;21.30;99.90;;;;;;5186151;27;20468;-41
2021/06/02 09:29:08;;;;;;;5.40;4.87;;;21.20;99.90;;;;;;5159680;27;20443;-41
2021/06/02 09:31:40;;;;;;;5.30;5.00;;;21.20;99.90;;;;;;5186849;27;20468;-41
2021/06/02 09:34:18;;;;;;;5.83;5.33;;;21.20;99.90;;;;;;5186050;27;20450;-41
2021/06/02 09:39:41;;;;;;;5.23;4.90;;;21.10;99.90;;;;;;5184406;27;20425;-42
2021/06/02 09:42:23;;;;;;;5.27;4.87;;;21.00;99.90;;;;;;5178102;27;20471;-42
2021/06/02 09:45:05;;;;;;;5.93;5.50;;;20.90;99.90;;;;;;5186439;27;20410;-42
2021/06/02 09:47:43;;;;;;;5.63;5.23;;;20.90;99.90;;;;;;5187007;27;20435;-42
2021/06/02 09:50:15;;;;;;;5.30;5.00;;;20.90;99.90;;;;;;5185330;27;20457;-41
2021/06/02 09:52:48;;;;;;;5.40;5.00;;;20.80;99.90;;;;;;5185935;27;20442;-41
2021/06/02 09:55:21;;;;;;;6.00;5.50;;;20.80;99.90;;;;;;5185350;27;20561;-42
2021/06/02 09:58:13;;;;;;;5.77;5.37;;;20.70;99.90;;;;;;5186136;27;20450;-42
2021/06/02 10:00:47;;;;;;;5.43;5.03;;;20.70;99.90;;;;;;5179631;27;20445;-41
2021/06/02 10:03:18;;;;;;;5.70;5.30;;;20.60;99.90;;;;;;5186224;27;20474;-41
2021/06/02 10:05:50;;;;;;;5.30;4.83;;;20.60;99.90;;;;;;5185270;27;20414;-41
2021/06/02 10:08:28;;;;;;;4.90;4.57;;;20.60;99.90;;;;;;5184718;27;20439;-41
2021/06/02 10:11:11;;;;;;;6.77;5.23;;;20.60;99.90;;;;;;5185294;27;20470;-42
2021/06/02 10:13:43;;;;;;;5.53;5.23;;;20.50;99.90;;;;;;5185693;27;20447;-42
2021/06/02 10:16:14;;;;;;;5.63;5.23;;;20.50;99.90;;;;;;5185560;27;20474;-41
2021/06/02 10:18:48;;;;;;;5.40;5.10;;;20.50;99.90;;;;;;5185516;27;20831;-42
2021/06/02 10:21:19;;;;;;;5.53;5.23;;;20.50;99.90;;;;;;5186021;27;20438;-42
2021/06/02 10:23:49;;;;;;;5.20;4.90;;;20.50;99.90;;;;;;5184658;27;20439;-42
2021/06/02 10:26:20;;;;;;;5.60;5.20;;;20.40;99.90;;;;;;5185322;27;20455;-41
2021/06/02 10:28:52;;;;;;;5.80;5.40;;;20.40;99.90;;;;;;5185646;27;20451;-42
2021/06/02 10:31:23;;;;;;;6.37;5.83;;;20.30;99.90;;;;;;5185303;27;20445;-42
2021/06/02 10:33:54;;;;;;;6.27;5.70;;;20.30;99.90;;;;;;5185360;27;20579;-41
2021/06/02 10:36:27;;;;;;;6.17;5.77;;;20.20;99.90;;;;;;5185899;27;20543;-43
2021/06/02 10:38:59;;;;;;;5.20;4.80;;;20.10;99.90;;;;;;5184766;27;20443;-43
2021/06/02 10:41:33;;;;;;;5.87;5.30;;;20.10;99.90;;;;;;5184508;27;20451;-43
2021/06/02 10:44:10;;;;;;;5.80;5.40;;;20.10;99.90;;;;;;5185328;27;20414;-43
2021/06/02 10:46:44;;;;;;;5.83;5.43;;;20.10;99.90;;;;;;5185691;27;20864;-43
2021/06/02 10:49:15;;;;;;;5.87;5.47;;;20.10;99.90;;;;;;5185102;27;20883;-43
2021/06/02 10:51:46;;;;;;;5.97;5.47;;;20.10;99.90;;;;;;5185697;27;20448;-43
2021/06/02 10:54:18;;;;;;;5.47;5.13;;;20.10;99.90;;;;;;5184011;27;20443;-43
2021/06/02 10:57:13;;;;;;;6.33;5.83;;;20.00;99.90;;;;;;5176077;27;20433;-43
2021/06/02 10:59:46;;;;;;;6.23;5.73;;;20.10;99.90;;;;;;5184536;27;20445;-42
2021/06/02 11:02:17;;;;;;;6.57;6.07;;;20.00;99.90;;;;;;5185600;27;20413;-42
2021/06/02 11:05:17;;;;;;;6.53;6.03;;;20.00;99.90;;;;;;5184578;27;20526;-42
2021/06/02 11:07:52;;;;;;;5.50;5.13;;;19.90;99.90;;;;;;5182400;27;20479;-42
2021/06/02 11:10:33;;;;;;;6.27;5.83;;;19.90;99.90;;;;;;5184214;27;20829;-42
2021/06/02 11:13:05;;;;;;;6.00;5.60;;;19.90;99.90;;;;;;5176481;27;20481;-42
2021/06/02 11:15:47;;;;;;;6.20;5.70;;;19.80;99.90;;;;;;5185317;27;20506;-41
2021/06/02 11:18:23;;;;;;;6.00;5.60;;;19.70;99.90;;;;;;5170907;27;20439;-42
2021/06/02 11:20:54;;;;;;;6.47;5.97;;;19.70;99.90;;;;;;5188681;27;20421;-42
2021/06/02 11:23:32;;;;;;;6.47;6.07;;;19.70;99.90;;;;;;5187595;27;20409;-42
2021/06/02 11:26:24;;;;;;;6.77;6.17;;;19.60;99.90;;;;;;5187044;27;20417;-42
2021/06/02 11:28:55;;;;;;;7.40;6.80;;;19.60;99.90;;;;;;5188206;27;20474;-42
2021/06/02 11:31:29;;;;;;;6.93;6.43;;;19.50;99.90;;;;;;5188956;27;20625;-43
2021/06/02 11:34:27;;;;;;;6.53;6.03;;;19.50;99.90;;;;;;5188187;27;20426;-42
2021/06/02 11:37:02;;;;;;;6.40;5.80;;;19.50;99.90;;;;;;5188295;27;20479;-41
2021/06/02 11:39:33;;;;;;;6.73;6.13;;;19.50;99.90;;;;;;5187851;27;20493;-42
2021/06/02 11:42:05;;;;;;;6.97;6.27;;;19.50;99.90;;;;;;5188304;27;20469;-42
2021/06/02 11:44:37;;;;;;;6.37;5.77;;;19.40;99.90;;;;;;5187778;27;20540;-41
2021/06/02 11:47:09;;;;;;;6.17;5.67;;;19.30;99.90;;;;;;5188295;27;20442;-41
2021/06/02 11:49:41;;;;;;;6.10;5.60;;;19.30;99.90;;;;;;5188599;27;20500;-42
2021/06/02 11:52:13;;;;;;;6.43;5.93;;;19.30;99.90;;;;;;5188387;27;20816;-41
2021/06/02 11:54:51;;;;;;;5.47;4.97;;;19.30;99.90;;;;;;5186760;27;20421;-41
2021/06/02 11:57:28;;;;;;;8.07;5.90;;;19.30;99.90;;;;;;5188235;27;20485;-41
2021/06/02 12:00:01;;;;;;;6.30;5.90;;;19.30;99.90;;;;;;5187632;27;20464;-42
2021/06/02 12:02:34;;;;;;;5.90;5.53;;;19.30;99.90;;;;;;5187167;27;20455;-41
2021/06/02 12:05:18;;;;;;;6.17;5.57;;;19.30;99.90;;;;;;5188481;27;20514;-42
2021/06/02 12:07:52;;;;;;;6.23;5.70;;;19.20;99.90;;;;;;5188017;27;20413;-42
2021/06/02 12:10:23;;;;;;;7.27;6.67;;;19.20;99.90;;;;;;5187544;27;20439;-41
2021/06/02 12:12:54;;;;;;;5.60;5.20;;;19.20;99.90;;;;;;5187625;27;20507;-41
2021/06/02 12:15:27;;;;;;;6.43;5.93;;;19.10;99.90;;;;;;5187891;27;20510;-41
2021/06/02 12:17:59;;;;;;;6.77;6.17;;;19.00;99.90;;;;;;5187797;27;20451;-41
2021/06/02 12:20:32;;;;;;;6.23;5.70;;;18.90;99.90;;;;;;5187287;27;20443;-40
2021/06/02 12:23:05;;;;;;;6.60;6.00;;;18.90;99.90;;;;;;5172356;27;20471;-41
2021/06/02 12:25:36;;;;;;;6.30;5.80;;;18.90;99.90;;;;;;5186288;27;20455;-41
2021/06/02 12:28:13;;;;;;;6.40;5.87;;;18.90;99.90;;;;;;5187104;27;20450;-41
2021/06/02 12:30:43;;;;;;;7.47;5.93;;;18.90;99.90;;;;;;5185900;27;20451;-42
2021/06/02 12:33:15;;;;;;;6.37;5.87;;;18.90;99.90;;;;;;5186791;27;20522;-42
2021/06/02 12:36:07;;;;;;;5.90;5.37;;;18.90;99.90;;;;;;5177822;27;20447;-41
2021/06/02 12:38:40;;;;;;;6.87;6.27;;;18.90;99.90;;;;;;5185035;27;20473;-40
2021/06/02 12:41:12;;;;;;;6.10;5.57;;;18.90;99.90;;;;;;5187666;27;20435;-42
2021/06/02 12:43:46;;;;;;;6.23;5.77;;;18.80;99.90;;;;;;5187159;27;20450;-41
2021/06/02 12:46:17;;;;;;;5.73;5.33;;;18.80;99.90;;;;;;5187013;27;20478;-42
2021/06/02 12:48:49;;;;;;;6.30;5.70;;;18.80;99.90;;;;;;5185906;27;20453;-42
2021/06/02 12:51:23;;;;;;;6.47;5.97;;;18.80;99.90;;;;;;5187247;27;20559;-42
2021/06/02 12:53:54;;;;;;;5.90;5.40;;;18.80;99.90;;;;;;5185935;27;20453;-43
2021/06/02 12:56:24;;;;;;;7.10;6.30;;;18.80;99.90;;;;;;5187552;27;20421;-42
2021/06/02 12:58:56;;;;;;;6.43;5.93;;;18.90;99.90;;;;;;5185858;27;20458;-42
2021/06/02 13:01:31;;;;;;;6.73;6.13;;;18.90;99.90;;;;;;5186860;27;20446;-42
2021/06/02 13:04:05;;;;;;;6.87;6.33;;;18.90;99.90;;;;;;5186529;27;20452;-42
2021/06/02 13:06:36;;;;;;;6.73;6.00;;;18.90;99.90;;;;;;5182427;27;20440;-43
2021/06/02 13:09:10;;;;;;;6.87;6.27;;;18.90;99.90;;;;;;5185609;27;20467;-41
2021/06/02 13:11:41;;;;;;;8.73;5.67;;;19.00;99.90;;;;;;5186548;27;20441;-41
2021/06/02 13:14:11;;;;;;;6.83;6.13;;;19.00;99.90;;;;;;5186802;27;20446;-42
2021/06/02 13:16:50;;;;;;;7.10;6.50;;;19.00;99.90;;;;;;5186864;27;20480;-42
2021/06/02 13:19:35;;;;;;;6.50;5.80;;;19.00;99.90;;;;;;5181149;27;20636;-42
2021/06/02 13:22:06;;;;;;;6.00;5.50;;;19.00;99.90;;;;;;5186478;27;20864;-43
2021/06/02 13:24:40;;;;;;;6.90;6.30;;;19.00;99.90;;;;;;5185317;27;20480;-42
2021/06/02 13:27:16;;;;;;;6.30;5.70;;;19.00;99.90;;;;;;5185208;27;20513;-42
2021/06/02 13:30:05;;;;;;;6.53;5.93;;;19.10;99.90;;;;;;5186057;27;20463;-43
2021/06/02 13:32:35;;;;;;;6.57;5.93;;;19.10;99.90;;;;;;5186330;27;20557;-42
2021/06/02 13:35:18;;;;;;;5.60;5.10;;;19.10;99.90;;;;;;5185735;27;20525;-42
2021/06/02 13:37:49;;;;;;;6.47;5.87;;;19.10;99.90;;;;;;5186412;27;20502;-42
2021/06/02 13:40:23;;;;;;;6.57;5.97;;;19.20;99.90;;;;;;5185494;27;20888;-42
2021/06/02 13:43:09;;;;;;;6.13;5.43;;;19.30;99.90;;;;;;5185200;27;20451;-42
2021/06/02 13:45:49;;;;;;;7.13;6.10;;;19.30;99.90;;;;;;5171117;27;20420;-42
2021/06/02 13:48:35;;;;;;;5.80;5.30;;;19.40;99.90;;;;;;5179798;27;20482;-41
2021/06/02 13:51:22;;;;;;;7.10;5.20;;;19.40;99.90;;;;;;5183695;27;20779;-41
2021/06/02 13:54:17;;;;;;;5.80;5.20;;;19.40;99.90;;;;;;5181744;27;20922;-42